GRARBER Weather Reports


Display with metric or nautical units.
time (UTC)temp
F
wind
direction
speed
MPH
gust
MPH
rain 1hr
in
rain 24hr
in
rain mn
in
humidity
%
barometer
mb
20190424211927 52 170 17.0 24.0 0.00 0.00 0.00 50
20190424201827 52 170 17.0 25.0 0.00 0.00 0.00 53
20190424191928 54 160 23.0 31.0 0.00 0.00 0.00 54
20190424181829 55 150 21.0 28.0 0.00 0.00 0.00 50
20190424171828 57 160 18.0 0.0 0.00 0.00 0.00 44
20190424161828 57 160 16.0 24.0 0.00 0.00 0.00 44
20190424151828 57 160 17.0 25.0 0.00 0.00 0.00 44
20190424141829 59 150 15.0 23.0 0.00 0.00 0.00 41
20190424131722 59 180 14.0 24.0 0.00 0.00 0.00 38
20190424121725 57 170 12.0 22.0 0.00 0.00 0.00 41
20190424111724 57 170 12.0 18.0 0.00 0.00 0.00 47
20190424101822 55 170 12.0 0.0 0.00 0.00 0.00 47
20190424091823 54 180 15.0 22.0 0.00 0.00 0.00 46
20190424081823 50 160 17.0 0.0 0.00 0.00 0.00 53
20190424071823 50 160 17.0 25.0 0.00 0.00 0.00 53
20190424061824 48 160 21.0 29.0 0.00 0.00 0.00 57
20190424051823 46 170 22.0 30.0 0.00 0.00 0.00 61
20190424041720 46 170 21.0 28.0 0.00 0.00 0.00 61
20190424031826 45 170 23.0 31.0 0.00 0.00 0.00 65
20190424021827 45 160 22.0 30.0 0.00 0.00 0.00 65
20190424011829 43 160 21.0 29.0 0.00 0.00 0.00 70
20190424001929 43 160 26.0 33.0 0.00 0.00 0.00 70
20190423231808 43 160 25.0 35.0 0.00 0.00 0.00 75
20190423221822 41 150 30.0 38.0 0.00 0.00 0.00 80